N104WT KPSP-KSAN
Flight info
| Callsign | N104WT |
|---|---|
| Flight time | 0h 43m |
| Altitude | 3500 |
| Route | KPSP/31L N0172F100 HWRRD1 TRM V514 JLI/N0174F110 V514 CANNO/N0173F100 V514 MZB DCT KSAN/27 |
| Aircraft | DA62/L-DA62/L |
Departure
| Time | 2026-04-23 01:39 |
|---|---|
| Airport | Palm Springs International Airport (KPSP) |
Arrival
| Time | 2026-04-23 02:22 |
|---|---|
| Airport | San Diego International Airport (KSAN) |
| Time | Latitude | Longitude | Altitude | Speed | Heading |
|---|---|---|---|---|---|
| 2026-04-23 01:18 | 33.82449 | -116.49851 | 406 ft | 0 kts | 55° |
| 2026-04-23 01:33 | 33.82451 | -116.49847 | 406 ft | 2 kts | 65° |
| 2026-04-23 01:34 | 33.82409 | -116.49792 | 404 ft | 12 kts | 140° |
| 2026-04-23 01:34 | 33.82331 | -116.49721 | 403 ft | 14 kts | 142° |
| 2026-04-23 01:34 | 33.82299 | -116.49693 | 402 ft | 9 kts | 149° |
| 2026-04-23 01:34 | 33.82239 | -116.49686 | 402 ft | 9 kts | 208° |
| 2026-04-23 01:35 | 33.82184 | -116.49657 | 400 ft | 12 kts | 144° |
| 2026-04-23 01:35 | 33.82135 | -116.49613 | 399 ft | 0 kts | 147° |
| 2026-04-23 01:35 | 33.82134 | -116.49613 | 399 ft | 0 kts | 147° |
| 2026-04-23 01:35 | 33.82095 | -116.49572 | 397 ft | 13 kts | 150° |
| 2026-04-23 01:36 | 33.82028 | -116.49549 | 396 ft | 9 kts | 200° |
| 2026-04-23 01:36 | 33.81978 | -116.49617 | 397 ft | 17 kts | 232° |
| 2026-04-23 01:36 | 33.81922 | -116.49707 | 397 ft | 10 kts | 232° |
| 2026-04-23 01:36 | 33.81913 | -116.49722 | 397 ft | 0 kts | 235° |
| 2026-04-23 01:37 | 33.81911 | -116.49819 | 400 ft | 20 kts | 311° |
| 2026-04-23 01:38 | 33.82078 | -116.49978 | 407 ft | 47 kts | 323° |
| 2026-04-23 01:38 | 33.82490 | -116.50348 | 417 ft | 98 kts | 323° |
| 2026-04-23 01:38 | 33.83093 | -116.50864 | 624 ft | 112 kts | 324° |
| 2026-04-23 01:38 | 33.83759 | -116.51420 | 937 ft | 122 kts | 325° |
| 2026-04-23 01:39 | 33.84484 | -116.52047 | 1195 ft | 134 kts | 326° |
| 2026-04-23 01:39 | 33.85287 | -116.52664 | 1477 ft | 140 kts | 329° |
| 2026-04-23 01:39 | 33.86121 | -116.53274 | 1757 ft | 144 kts | 329° |
| 2026-04-23 01:39 | 33.87002 | -116.53904 | 2016 ft | 147 kts | 330° |
| 2026-04-23 01:40 | 33.87845 | -116.54565 | 2403 ft | 143 kts | 321° |
| 2026-04-23 01:40 | 33.88531 | -116.55419 | 2744 ft | 143 kts | 309° |
| 2026-04-23 01:40 | 33.89310 | -116.56230 | 2930 ft | 152 kts | 323° |
| 2026-04-23 01:40 | 33.90198 | -116.56972 | 3129 ft | 158 kts | 330° |
| 2026-04-23 01:41 | 33.91260 | -116.57234 | 3200 ft | 168 kts | 11° |
| 2026-04-23 01:41 | 33.92231 | -116.56544 | 3466 ft | 163 kts | 41° |
| 2026-04-23 01:41 | 33.93027 | -116.55572 | 3705 ft | 162 kts | 47° |
| 2026-04-23 01:41 | 33.93813 | -116.54601 | 3954 ft | 161 kts | 44° |
| 2026-04-23 01:42 | 33.94628 | -116.53672 | 4204 ft | 161 kts | 43° |
| 2026-04-23 01:42 | 33.95453 | -116.52757 | 4454 ft | 161 kts | 43° |
| 2026-04-23 01:42 | 33.96218 | -116.51774 | 4702 ft | 161 kts | 59° |
| 2026-04-23 01:42 | 33.96550 | -116.50493 | 4952 ft | 162 kts | 86° |
| 2026-04-23 01:43 | 33.96391 | -116.49156 | 5204 ft | 162 kts | 104° |
| 2026-04-23 01:43 | 33.96119 | -116.47837 | 5456 ft | 163 kts | 104° |
| 2026-04-23 01:43 | 33.95844 | -116.46511 | 5707 ft | 163 kts | 104° |
| 2026-04-23 01:43 | 33.95567 | -116.45182 | 5958 ft | 164 kts | 104° |
| 2026-04-23 01:44 | 33.95292 | -116.43861 | 6206 ft | 165 kts | 104° |
| 2026-04-23 01:44 | 33.95010 | -116.42517 | 6454 ft | 165 kts | 106° |
| 2026-04-23 01:44 | 33.94439 | -116.41332 | 6705 ft | 166 kts | 134° |
| 2026-04-23 01:44 | 33.93584 | -116.40398 | 6958 ft | 166 kts | 138° |
| 2026-04-23 01:45 | 33.92721 | -116.39469 | 7209 ft | 167 kts | 138° |
| 2026-04-23 01:45 | 33.91852 | -116.38534 | 7460 ft | 168 kts | 138° |
| 2026-04-23 01:45 | 33.90979 | -116.37594 | 7712 ft | 168 kts | 138° |
| 2026-04-23 01:45 | 33.90105 | -116.36652 | 7962 ft | 169 kts | 138° |
| 2026-04-23 01:46 | 33.89226 | -116.35707 | 8207 ft | 170 kts | 138° |
| 2026-04-23 01:46 | 33.88355 | -116.34770 | 8460 ft | 170 kts | 138° |
| 2026-04-23 01:46 | 33.87470 | -116.33817 | 8711 ft | 171 kts | 138° |
| 2026-04-23 01:46 | 33.86581 | -116.32861 | 8965 ft | 172 kts | 138° |
| 2026-04-23 01:47 | 33.85659 | -116.31870 | 9000 ft | 183 kts | 138° |
| 2026-04-23 01:47 | 33.84687 | -116.30826 | 9007 ft | 191 kts | 138° |
| 2026-04-23 01:47 | 33.83683 | -116.29747 | 9016 ft | 195 kts | 138° |
| 2026-04-23 01:47 | 33.82663 | -116.28652 | 9010 ft | 197 kts | 138° |
| 2026-04-23 01:48 | 33.81646 | -116.27560 | 9010 ft | 198 kts | 138° |
| 2026-04-23 01:48 | 33.80613 | -116.26452 | 9009 ft | 199 kts | 138° |
| 2026-04-23 01:48 | 33.79573 | -116.25350 | 9009 ft | 199 kts | 142° |
| 2026-04-23 01:48 | 33.78350 | -116.24579 | 9009 ft | 199 kts | 156° |
| 2026-04-23 01:49 | 33.77088 | -116.23883 | 9010 ft | 199 kts | 155° |
| 2026-04-23 01:49 | 33.75830 | -116.23184 | 9011 ft | 199 kts | 155° |
| 2026-04-23 01:49 | 33.74567 | -116.22489 | 9010 ft | 200 kts | 155° |
| 2026-04-23 01:49 | 33.73337 | -116.21812 | 9007 ft | 192 kts | 155° |
| 2026-04-23 01:50 | 33.72144 | -116.21156 | 9001 ft | 185 kts | 155° |
| 2026-04-23 01:50 | 33.70987 | -116.20519 | 8994 ft | 181 kts | 155° |
| 2026-04-23 01:50 | 33.69853 | -116.19895 | 8993 ft | 178 kts | 155° |
| 2026-04-23 01:50 | 33.68733 | -116.19278 | 8995 ft | 176 kts | 155° |
| 2026-04-23 01:51 | 33.67620 | -116.18666 | 8993 ft | 176 kts | 155° |
| 2026-04-23 01:51 | 33.66510 | -116.18055 | 8993 ft | 175 kts | 155° |
| 2026-04-23 01:51 | 33.65401 | -116.17446 | 8995 ft | 175 kts | 155° |
| 2026-04-23 01:51 | 33.64289 | -116.16836 | 8995 ft | 177 kts | 156° |
| 2026-04-23 01:52 | 33.63079 | -116.16540 | 8996 ft | 180 kts | 182° |
| 2026-04-23 01:52 | 33.61880 | -116.16893 | 8999 ft | 182 kts | 207° |
| 2026-04-23 01:52 | 33.60834 | -116.17752 | 9009 ft | 183 kts | 216° |
| 2026-04-23 01:52 | 33.59804 | -116.18658 | 9007 ft | 184 kts | 216° |
| 2026-04-23 01:53 | 33.58771 | -116.19567 | 9012 ft | 184 kts | 216° |
| 2026-04-23 01:53 | 33.57736 | -116.20476 | 9014 ft | 184 kts | 216° |
| 2026-04-23 01:53 | 33.56700 | -116.21386 | 9011 ft | 185 kts | 216° |
| 2026-04-23 01:53 | 33.55664 | -116.22295 | 9014 ft | 185 kts | 216° |
| 2026-04-23 01:54 | 33.54627 | -116.23205 | 9009 ft | 185 kts | 216° |
| 2026-04-23 01:54 | 33.53591 | -116.24114 | 9013 ft | 185 kts | 216° |
| 2026-04-23 01:54 | 33.52550 | -116.25026 | 9014 ft | 185 kts | 216° |
| 2026-04-23 01:54 | 33.51522 | -116.25927 | 9009 ft | 185 kts | 216° |
| 2026-04-23 01:55 | 33.50485 | -116.26836 | 9009 ft | 185 kts | 216° |
| 2026-04-23 01:55 | 33.49446 | -116.27747 | 9014 ft | 185 kts | 216° |
| 2026-04-23 01:55 | 33.48408 | -116.28655 | 9009 ft | 185 kts | 216° |
| 2026-04-23 01:55 | 33.47370 | -116.29563 | 9018 ft | 185 kts | 216° |
| 2026-04-23 01:56 | 33.46343 | -116.30464 | 9010 ft | 185 kts | 216° |
| 2026-04-23 01:56 | 33.45302 | -116.31374 | 9008 ft | 185 kts | 216° |
| 2026-04-23 01:56 | 33.44263 | -116.32282 | 9014 ft | 185 kts | 216° |
| 2026-04-23 01:56 | 33.43224 | -116.33192 | 9008 ft | 185 kts | 216° |
| 2026-04-23 01:57 | 33.42183 | -116.34101 | 9015 ft | 185 kts | 216° |
| 2026-04-23 01:57 | 33.41157 | -116.34998 | 9008 ft | 185 kts | 216° |
| 2026-04-23 01:57 | 33.40119 | -116.35905 | 9016 ft | 185 kts | 216° |
| 2026-04-23 01:57 | 33.39081 | -116.36811 | 9008 ft | 185 kts | 216° |
| 2026-04-23 01:58 | 33.38042 | -116.37719 | 9008 ft | 185 kts | 216° |
| 2026-04-23 01:58 | 33.37005 | -116.38625 | 9018 ft | 185 kts | 216° |
| 2026-04-23 01:58 | 33.35966 | -116.39531 | 9011 ft | 185 kts | 216° |
| 2026-04-23 01:58 | 33.34926 | -116.40438 | 9012 ft | 185 kts | 216° |
| 2026-04-23 01:59 | 33.33887 | -116.41344 | 9008 ft | 185 kts | 216° |
| 2026-04-23 01:59 | 33.32847 | -116.42250 | 9016 ft | 185 kts | 216° |
| 2026-04-23 01:59 | 33.31808 | -116.43156 | 9013 ft | 185 kts | 216° |
| 2026-04-23 01:59 | 33.30770 | -116.44060 | 9012 ft | 185 kts | 216° |
| 2026-04-23 02:00 | 33.29713 | -116.44932 | 9007 ft | 184 kts | 206° |
| 2026-04-23 02:00 | 33.28467 | -116.45272 | 9013 ft | 184 kts | 190° |
| 2026-04-23 02:00 | 33.27232 | -116.45668 | 9009 ft | 184 kts | 200° |
| 2026-04-23 02:00 | 33.26123 | -116.46425 | 8913 ft | 188 kts | 217° |
| 2026-04-23 02:01 | 33.25125 | -116.47430 | 8911 ft | 187 kts | 221° |
| 2026-04-23 02:01 | 33.24150 | -116.48445 | 8912 ft | 186 kts | 220° |
| 2026-04-23 02:01 | 33.23166 | -116.49443 | 8910 ft | 185 kts | 220° |
| 2026-04-23 02:01 | 33.22180 | -116.50432 | 8910 ft | 185 kts | 220° |
| 2026-04-23 02:02 | 33.21193 | -116.51422 | 8882 ft | 186 kts | 220° |
| 2026-04-23 02:02 | 33.20201 | -116.52417 | 8882 ft | 185 kts | 220° |
| 2026-04-23 02:02 | 33.19214 | -116.53409 | 8883 ft | 185 kts | 220° |
| 2026-04-23 02:02 | 33.18229 | -116.54397 | 8881 ft | 185 kts | 220° |
| 2026-04-23 02:03 | 33.17256 | -116.55374 | 8883 ft | 185 kts | 220° |
| 2026-04-23 02:03 | 33.16271 | -116.56361 | 8881 ft | 184 kts | 220° |
| 2026-04-23 02:03 | 33.15290 | -116.57345 | 8882 ft | 184 kts | 220° |
| 2026-04-23 02:03 | 33.14276 | -116.58279 | 8881 ft | 184 kts | 208° |
| 2026-04-23 02:04 | 33.13053 | -116.58703 | 8883 ft | 184 kts | 186° |
| 2026-04-23 02:04 | 33.11775 | -116.58832 | 8884 ft | 184 kts | 185° |
| 2026-04-23 02:04 | 33.10499 | -116.58962 | 8884 ft | 184 kts | 185° |
| 2026-04-23 02:04 | 33.09650 | -116.59050 | 8884 ft | 184 kts | 185° |
| 2026-04-23 02:05 | 33.07941 | -116.59228 | 8885 ft | 184 kts | 185° |
| 2026-04-23 02:05 | 33.06676 | -116.59282 | 8883 ft | 183 kts | 178° |
| 2026-04-23 02:05 | 33.05461 | -116.59673 | 8882 ft | 183 kts | 208° |
| 2026-04-23 02:05 | 33.04355 | -116.60435 | 8886 ft | 184 kts | 211° |
| 2026-04-23 02:06 | 33.03625 | -116.60953 | 8883 ft | 184 kts | 211° |
| 2026-04-23 02:06 | 33.02524 | -116.61737 | 8888 ft | 184 kts | 211° |
| 2026-04-23 02:06 | 33.01421 | -116.62524 | 8880 ft | 185 kts | 211° |
| 2026-04-23 02:06 | 33.00317 | -116.63310 | 8883 ft | 185 kts | 211° |
| 2026-04-23 02:07 | 32.99214 | -116.64097 | 8884 ft | 185 kts | 211° |
| 2026-04-23 02:07 | 32.98124 | -116.64873 | 8884 ft | 184 kts | 211° |
| 2026-04-23 02:07 | 32.97020 | -116.65661 | 8882 ft | 185 kts | 211° |
| 2026-04-23 02:07 | 32.95917 | -116.66446 | 8884 ft | 185 kts | 211° |
| 2026-04-23 02:08 | 32.94814 | -116.67233 | 8882 ft | 185 kts | 211° |
| 2026-04-23 02:08 | 32.93710 | -116.68019 | 8885 ft | 185 kts | 211° |
| 2026-04-23 02:08 | 32.92604 | -116.68805 | 8885 ft | 185 kts | 211° |
| 2026-04-23 02:08 | 32.91498 | -116.69593 | 8880 ft | 185 kts | 211° |
| 2026-04-23 02:09 | 32.90395 | -116.70379 | 8884 ft | 185 kts | 211° |
| 2026-04-23 02:09 | 32.89306 | -116.71154 | 8879 ft | 184 kts | 211° |
| 2026-04-23 02:09 | 32.88201 | -116.71939 | 8880 ft | 184 kts | 211° |
| 2026-04-23 02:09 | 32.87100 | -116.72724 | 8882 ft | 184 kts | 211° |
| 2026-04-23 02:10 | 32.86099 | -116.73438 | 8786 ft | 155 kts | 211° |
| 2026-04-23 02:10 | 32.85161 | -116.74109 | 8583 ft | 156 kts | 211° |
| 2026-04-23 02:10 | 32.84230 | -116.74772 | 8381 ft | 155 kts | 211° |
| 2026-04-23 02:10 | 32.83304 | -116.75433 | 8179 ft | 155 kts | 211° |
| 2026-04-23 02:11 | 32.82384 | -116.76091 | 7984 ft | 154 kts | 211° |
| 2026-04-23 02:11 | 32.81465 | -116.76746 | 7771 ft | 153 kts | 211° |
| 2026-04-23 02:11 | 32.80563 | -116.77389 | 7579 ft | 153 kts | 211° |
| 2026-04-23 02:11 | 32.79651 | -116.78039 | 7379 ft | 152 kts | 211° |
| 2026-04-23 02:12 | 32.78740 | -116.78689 | 7178 ft | 152 kts | 211° |
| 2026-04-23 02:12 | 32.77826 | -116.79340 | 6934 ft | 154 kts | 211° |
| 2026-04-23 02:12 | 32.76902 | -116.79999 | 6684 ft | 155 kts | 211° |
| 2026-04-23 02:12 | 32.75979 | -116.80657 | 6436 ft | 154 kts | 211° |
| 2026-04-23 02:13 | 32.75059 | -116.81312 | 6188 ft | 154 kts | 211° |
| 2026-04-23 02:13 | 32.74139 | -116.81969 | 5937 ft | 154 kts | 211° |
| 2026-04-23 02:13 | 32.73247 | -116.82604 | 5882 ft | 143 kts | 211° |
| 2026-04-23 02:13 | 32.72410 | -116.83201 | 5715 ft | 141 kts | 211° |
| 2026-04-23 02:14 | 32.71553 | -116.83811 | 5466 ft | 146 kts | 211° |
| 2026-04-23 02:14 | 32.70709 | -116.84414 | 5208 ft | 137 kts | 211° |
| 2026-04-23 02:14 | 32.69913 | -116.85001 | 4944 ft | 132 kts | 220° |
| 2026-04-23 02:14 | 32.69516 | -116.85898 | 4870 ft | 116 kts | 252° |
| 2026-04-23 02:15 | 32.68955 | -116.87819 | 4367 ft | 133 kts | 251° |
| 2026-04-23 02:15 | 32.68662 | -116.88833 | 4084 ft | 127 kts | 251° |
| 2026-04-23 02:15 | 32.68379 | -116.89810 | 3781 ft | 124 kts | 251° |
| 2026-04-23 02:16 | 32.68111 | -116.90737 | 3680 ft | 120 kts | 251° |
| 2026-04-23 02:16 | 32.67808 | -116.91770 | 3687 ft | 143 kts | 251° |
| 2026-04-23 02:16 | 32.67586 | -116.92955 | 3686 ft | 151 kts | 268° |
| 2026-04-23 02:16 | 32.67522 | -116.94215 | 3685 ft | 154 kts | 269° |
| 2026-04-23 02:17 | 32.67719 | -116.95475 | 3563 ft | 156 kts | 283° |
| 2026-04-23 02:17 | 32.67986 | -116.96718 | 3396 ft | 155 kts | 285° |
| 2026-04-23 02:17 | 32.68270 | -116.97963 | 3223 ft | 159 kts | 285° |
| 2026-04-23 02:17 | 32.68585 | -116.99231 | 3058 ft | 164 kts | 286° |
| 2026-04-23 02:18 | 32.68901 | -117.00537 | 2888 ft | 165 kts | 286° |
| 2026-04-23 02:18 | 32.69219 | -117.01858 | 2671 ft | 168 kts | 286° |
| 2026-04-23 02:18 | 32.69541 | -117.03191 | 2450 ft | 168 kts | 286° |
| 2026-04-23 02:18 | 32.69862 | -117.04517 | 2223 ft | 167 kts | 286° |
| 2026-04-23 02:19 | 32.70182 | -117.05841 | 2000 ft | 166 kts | 286° |
| 2026-04-23 02:19 | 32.70500 | -117.07161 | 1778 ft | 166 kts | 286° |
| 2026-04-23 02:19 | 32.70816 | -117.08470 | 1608 ft | 163 kts | 286° |
| 2026-04-23 02:19 | 32.71125 | -117.09750 | 1429 ft | 162 kts | 286° |
| 2026-04-23 02:20 | 32.71435 | -117.11034 | 1256 ft | 161 kts | 286° |
| 2026-04-23 02:20 | 32.71718 | -117.12193 | 1069 ft | 132 kts | 287° |
| 2026-04-23 02:20 | 32.71964 | -117.13197 | 877 ft | 122 kts | 287° |
| 2026-04-23 02:20 | 32.72188 | -117.14144 | 687 ft | 117 kts | 287° |
| 2026-04-23 02:21 | 32.72402 | -117.15059 | 573 ft | 111 kts | 284° |
| 2026-04-23 02:21 | 32.72605 | -117.15958 | 428 ft | 115 kts | 286° |
| 2026-04-23 02:21 | 32.72841 | -117.16865 | 248 ft | 115 kts | 287° |
| 2026-04-23 02:21 | 32.73058 | -117.17757 | 87 ft | 108 kts | 286° |
| 2026-04-23 02:22 | 32.73248 | -117.18536 | 19 ft | 80 kts | 287° |
| 2026-04-23 02:22 | 32.73370 | -117.19028 | 19 ft | 34 kts | 287° |
| 2026-04-23 02:22 | 32.73445 | -117.19084 | 17 ft | 10 kts | 33° |
| 2026-04-23 02:22 | 32.73457 | -117.19073 | 17 ft | 0 kts | 41° |
| 2026-04-23 02:25 | 32.73466 | -117.19063 | 17 ft | 7 kts | 41° |
| 2026-04-23 02:26 | 32.73480 | -117.19001 | 16 ft | 15 kts | 107° |
| 2026-04-23 02:26 | 32.73449 | -117.18875 | 16 ft | 16 kts | 108° |
| 2026-04-23 02:26 | 32.73401 | -117.18676 | 16 ft | 29 kts | 105° |
| 2026-04-23 02:26 | 32.73355 | -117.18489 | 20 ft | 26 kts | 102° |
| 2026-04-23 02:27 | 32.73303 | -117.18277 | 17 ft | 27 kts | 107° |
| 2026-04-23 02:27 | 32.73268 | -117.18132 | 18 ft | 15 kts | 107° |
| 2026-04-23 02:27 | 32.73245 | -117.18035 | 17 ft | 6 kts | 105° |
| 2026-04-23 02:27 | 32.73256 | -117.17991 | 17 ft | 7 kts | 39° |
| 2026-04-23 02:28 | 32.73299 | -117.17971 | 19 ft | 1 kts | 19° |
| 2026-04-23 02:28 | 32.73348 | -117.17953 | 20 ft | 13 kts | 17° |
| 2026-04-23 02:28 | 32.73366 | -117.17897 | 20 ft | 9 kts | 128° |
| 2026-04-23 02:28 | 32.73343 | -117.17881 | 19 ft | 0 kts | 181° |